createdAt,value
2023-02-19T00:01:40.734Z,96.60
2023-02-19T00:04:16.569Z,96.60
2023-02-19T00:07:30.350Z,96.60
2023-02-19T00:09:57.070Z,96.60
2023-02-19T00:12:23.794Z,96.60
2023-02-19T00:14:50.625Z,96.60
2023-02-19T00:17:17.302Z,96.60
2023-02-19T00:19:44.137Z,96.60
2023-02-19T00:22:10.863Z,96.60
2023-02-19T00:24:37.594Z,96.60
2023-02-19T00:27:04.320Z,96.60
2023-02-19T00:29:31.156Z,96.60
2023-02-19T00:31:58.689Z,96.60
2023-02-19T00:34:25.631Z,96.60
2023-02-19T00:36:52.420Z,96.60
2023-02-19T00:39:19.203Z,96.60
2023-02-19T00:41:46.470Z,96.60
2023-02-19T00:44:14.628Z,96.60
2023-02-19T00:46:46.804Z,96.60
2023-02-19T00:49:20.423Z,96.60
2023-02-19T00:51:47.884Z,96.60
2023-02-19T00:54:15.056Z,96.60
2023-02-19T00:56:42.111Z,96.60
2023-02-19T00:59:09.137Z,96.60
2023-02-19T01:01:36.230Z,96.60
2023-02-19T01:04:05.518Z,96.60
2023-02-19T01:06:34.699Z,96.60
2023-02-19T01:09:01.421Z,96.60
2023-02-19T01:11:28.246Z,96.60
2023-02-19T01:13:59.272Z,96.60
2023-02-19T01:16:27.475Z,96.60
2023-02-19T01:18:54.531Z,96.60
2023-02-19T01:21:24.622Z,96.60
2023-02-19T01:23:53.803Z,96.60
2023-02-19T01:26:25.261Z,96.60
2023-02-19T01:28:52.586Z,96.60
2023-02-19T01:31:22.432Z,96.60
2023-02-19T01:33:52.046Z,96.60
2023-02-19T01:36:19.070Z,96.60
2023-02-19T01:38:46.564Z,96.60
2023-02-19T01:41:19.705Z,96.60
2023-02-19T01:44:07.975Z,96.60
2023-02-19T01:46:40.516Z,96.60
2023-02-19T01:49:21.429Z,96.60
2023-02-19T01:51:54.227Z,96.60
2023-02-19T01:54:24.912Z,96.60
2023-02-19T01:56:54.304Z,96.60
2023-02-19T01:59:21.606Z,96.60
2023-02-19T02:01:48.857Z,96.60
2023-02-19T02:04:17.406Z,96.60
2023-02-19T02:06:52.175Z,96.60
2023-02-19T02:09:39.696Z,96.60
2023-02-19T02:12:06.694Z,96.60
2023-02-19T02:14:37.286Z,96.60
2023-02-19T02:17:26.502Z,96.60
2023-02-19T02:20:11.869Z,96.60
2023-02-19T02:22:51.833Z,96.60
2023-02-19T02:25:45.413Z,96.60
2023-02-19T02:28:33.973Z,96.60
2023-02-19T02:31:15.156Z,96.60
2023-02-19T02:34:02.116Z,96.60
2023-02-19T02:36:43.252Z,96.60
2023-02-19T02:39:16.847Z,96.60
2023-02-19T02:42:09.502Z,96.60
2023-02-19T02:44:37.340Z,96.60
2023-02-19T02:47:07.289Z,96.60
2023-02-19T02:49:55.407Z,96.60
2023-02-19T02:52:41.383Z,96.60
2023-02-19T02:55:10.872Z,96.60
2023-02-19T02:57:37.815Z,96.60
2023-02-19T03:00:05.020Z,96.60
2023-02-19T03:02:32.489Z,96.60
2023-02-19T03:05:48.006Z,96.60
2023-02-19T03:08:30.593Z,96.60
2023-02-19T03:11:30.263Z,96.60
2023-02-19T03:14:25.287Z,96.60
2023-02-19T03:17:17.639Z,96.60
2023-02-19T03:19:50.501Z,96.60
2023-02-19T03:22:31.246Z,96.60
2023-02-19T03:25:34.604Z,96.60
2023-02-19T03:28:05.133Z,96.60
2023-02-19T03:30:34.879Z,96.60
2023-02-19T03:33:09.743Z,96.60
2023-02-19T03:35:57.033Z,96.60
2023-02-19T03:38:24.404Z,96.60
2023-02-19T03:41:07.192Z,96.60
2023-02-19T03:44:07.720Z,96.60
2023-02-19T03:46:48.672Z,96.60
2023-02-19T03:49:21.275Z,96.60
2023-02-19T03:52:25.682Z,96.60
2023-02-19T03:55:04.670Z,96.60
2023-02-19T03:57:47.319Z,96.60
2023-02-19T04:00:19.883Z,96.60
2023-02-19T04:02:55.995Z,96.60
2023-02-19T04:05:36.451Z,96.60
2023-02-19T04:08:12.416Z,96.60
2023-02-19T04:10:47.573Z,96.60
2023-02-19T04:13:30.400Z,96.60
2023-02-19T04:16:02.637Z,96.60
2023-02-19T04:18:32.804Z,96.60
2023-02-19T04:21:00.740Z,96.60
2023-02-19T04:23:33.773Z,96.60
2023-02-19T04:26:01.371Z,96.60
2023-02-19T04:28:29.304Z,96.60
2023-02-19T04:30:56.358Z,96.60
2023-02-19T04:33:23.100Z,96.60
2023-02-19T04:35:49.867Z,96.60
2023-02-19T04:38:16.605Z,96.60
2023-02-19T04:40:43.374Z,96.60
2023-02-19T04:43:10.185Z,96.60
2023-02-19T04:45:38.414Z,96.60
2023-02-19T04:48:05.650Z,96.60
2023-02-19T04:50:32.358Z,96.60
2023-02-19T04:52:59.094Z,96.60
2023-02-19T04:55:25.891Z,96.60
2023-02-19T04:57:52.664Z,96.60
2023-02-19T05:00:19.629Z,96.60
2023-02-19T05:02:46.431Z,96.60
2023-02-19T05:05:13.305Z,96.60
2023-02-19T05:07:40.060Z,96.60
2023-02-19T05:10:07.061Z,96.60
2023-02-19T05:12:33.790Z,96.60
2023-02-19T05:15:00.589Z,96.60
2023-02-19T05:17:27.392Z,96.60
2023-02-19T05:19:54.121Z,96.60
2023-02-19T05:22:20.847Z,96.60
2023-02-19T05:24:47.567Z,96.60
2023-02-19T05:27:14.452Z,96.60
2023-02-19T05:29:41.292Z,96.60
2023-02-19T05:32:08.039Z,96.60
2023-02-19T05:34:34.801Z,96.60
2023-02-19T05:37:01.533Z,96.60
2023-02-19T05:39:28.373Z,96.60
2023-02-19T05:41:55.195Z,96.60
2023-02-19T05:44:22.043Z,96.60
2023-02-19T05:46:48.826Z,96.60
2023-02-19T05:49:16.107Z,96.60
2023-02-19T05:51:42.882Z,96.60
2023-02-19T05:54:10.150Z,96.60
2023-02-19T05:56:39.680Z,96.60
2023-02-19T05:59:15.166Z,96.60
2023-02-19T06:01:42.054Z,96.60
2023-02-19T06:04:11.759Z,96.60
2023-02-19T06:06:38.807Z,96.60
2023-02-19T06:09:06.486Z,96.60
2023-02-19T06:11:33.532Z,96.60
2023-02-19T06:14:00.381Z,96.60
2023-02-19T06:16:27.305Z,96.60
2023-02-19T06:18:54.196Z,96.60
2023-02-19T06:21:21.005Z,96.60
2023-02-19T06:23:47.777Z,96.60
2023-02-19T06:26:17.577Z,96.60
2023-02-19T06:28:45.235Z,96.60
2023-02-19T06:31:12.693Z,96.60
2023-02-19T06:33:40.782Z,96.60
2023-02-19T06:36:11.212Z,96.60
2023-02-19T06:38:37.960Z,96.60
2023-02-19T06:41:06.382Z,96.60
2023-02-19T06:43:34.303Z,96.60
2023-02-19T06:46:02.881Z,96.60
2023-02-19T06:48:31.103Z,96.60
2023-02-19T06:50:58.280Z,96.60
2023-02-19T06:53:25.351Z,96.60
2023-02-19T06:56:04.245Z,96.60
2023-02-19T06:58:31.716Z,96.60
2023-02-19T07:01:07.247Z,96.60
2023-02-19T07:03:33.976Z,96.60
2023-02-19T07:06:00.907Z,96.60
2023-02-19T07:08:29.597Z,96.60
2023-02-19T07:10:58.183Z,96.60
2023-02-19T07:13:26.837Z,96.60
2023-02-19T07:16:04.073Z,96.60
2023-02-19T07:18:31.518Z,96.60
2023-02-19T07:21:13.451Z,96.60
2023-02-19T07:23:41.558Z,96.60
2023-02-19T07:26:17.499Z,96.60
2023-02-19T07:28:46.380Z,96.30
2023-02-19T07:31:14.593Z,96.30
2023-02-19T07:33:45.464Z,96.60
2023-02-19T07:36:16.855Z,96.20
2023-02-19T07:38:44.445Z,96.10
2023-02-19T07:41:11.727Z,96.00
2023-02-19T07:43:39.707Z,95.90
2023-02-19T07:46:08.888Z,96.10
2023-02-19T07:48:37.138Z,96.40
2023-02-19T07:51:05.727Z,96.00
2023-02-19T07:53:34.511Z,96.10
2023-02-19T07:56:03.808Z,96.10
2023-02-19T07:58:31.196Z,96.00
2023-02-19T08:01:06.353Z,96.20
2023-02-19T08:03:33.170Z,96.30
2023-02-19T08:05:59.975Z,96.10
2023-02-19T08:08:26.731Z,96.10
2023-02-19T08:11:12.338Z,95.30
2023-02-19T08:13:39.218Z,95.00
2023-02-19T08:16:20.065Z,95.10
2023-02-19T08:18:49.091Z,95.70
2023-02-19T08:21:18.150Z,95.60
2023-02-19T08:23:46.254Z,95.20
2023-02-19T08:26:13.375Z,94.90
2023-02-19T08:28:40.450Z,94.70
2023-02-19T08:31:09.629Z,94.70
2023-02-19T08:33:39.548Z,94.70
2023-02-19T08:36:08.731Z,94.60
2023-02-19T08:38:36.547Z,94.20
2023-02-19T08:41:08.920Z,94.20
2023-02-19T08:43:36.579Z,94.10
2023-02-19T08:46:05.936Z,93.40
2023-02-19T08:48:33.030Z,93.30
2023-02-19T08:51:03.864Z,93.00
2023-02-19T08:53:32.657Z,92.60
2023-02-19T08:56:04.029Z,92.10
2023-02-19T08:58:32.744Z,92.00
2023-02-19T09:00:59.851Z,91.50
2023-02-19T09:03:26.647Z,91.00
2023-02-19T09:05:53.416Z,90.90
2023-02-19T09:08:20.175Z,91.40
2023-02-19T09:11:01.368Z,91.70
2023-02-19T09:13:28.456Z,92.10
2023-02-19T09:15:56.996Z,92.30
2023-02-19T09:18:25.389Z,92.70
2023-02-19T09:20:52.310Z,92.20
2023-02-19T09:23:19.286Z,91.60
2023-02-19T09:25:46.214Z,91.60
2023-02-19T09:28:12.970Z,91.20
2023-02-19T09:30:39.916Z,90.40
2023-02-19T09:33:06.730Z,90.00
2023-02-19T09:35:33.548Z,88.00
2023-02-19T09:38:02.032Z,87.10
2023-02-19T09:40:30.613Z,85.80
2023-02-19T09:42:57.725Z,84.90
2023-02-19T09:45:26.257Z,84.00
2023-02-19T09:47:55.446Z,83.70
2023-02-19T09:50:30.316Z,81.50
2023-02-19T09:53:01.565Z,80.90
2023-02-19T09:55:34.572Z,80.50
2023-02-19T09:58:07.340Z,79.80
2023-02-19T10:00:37.487Z,79.20
2023-02-19T10:03:10.030Z,78.10
2023-02-19T10:05:38.510Z,78.40
2023-02-19T10:08:09.470Z,76.60
2023-02-19T10:10:37.822Z,76.00
2023-02-19T10:13:39.898Z,75.40
2023-02-19T10:16:11.325Z,75.30
2023-02-19T10:18:41.395Z,75.70
2023-02-19T10:21:12.494Z,75.90
2023-02-19T10:23:41.202Z,76.50
2023-02-19T10:26:08.033Z,77.30
2023-02-19T10:28:35.577Z,77.50
2023-02-19T10:31:06.761Z,76.40
2023-02-19T10:33:33.470Z,75.60
2023-02-19T10:36:02.167Z,75.40
2023-02-19T10:38:39.187Z,76.90
2023-02-19T10:41:17.517Z,78.60
2023-02-19T10:43:51.092Z,79.40
2023-02-19T10:46:31.425Z,80.20
2023-02-19T10:49:04.713Z,80.30
2023-02-19T10:51:35.576Z,81.20
2023-02-19T10:54:05.483Z,81.50
2023-02-19T10:56:33.718Z,81.70
2023-02-19T10:59:18.607Z,81.90
2023-02-19T11:01:57.522Z,81.60
2023-02-19T11:04:26.744Z,81.90
2023-02-19T11:06:53.774Z,82.30
2023-02-19T11:09:32.614Z,82.60
2023-02-19T11:11:59.504Z,82.10
2023-02-19T11:14:27.994Z,82.80
2023-02-19T11:16:57.506Z,83.60
2023-02-19T11:19:24.639Z,83.40
2023-02-19T11:21:52.151Z,85.20
2023-02-19T11:24:27.779Z,86.90
2023-02-19T11:26:54.969Z,87.40
2023-02-19T11:29:24.454Z,88.90
2023-02-19T11:31:51.597Z,89.20
2023-02-19T11:34:21.303Z,88.70
2023-02-19T11:37:08.403Z,88.40
2023-02-19T11:39:35.938Z,89.40
2023-02-19T11:42:08.737Z,89.30
2023-02-19T11:44:57.212Z,89.10
2023-02-19T11:47:39.730Z,90.70
2023-02-19T11:50:18.433Z,91.90
2023-02-19T11:53:03.300Z,91.90
2023-02-19T11:55:56.817Z,94.70
2023-02-19T11:58:57.974Z,96.20
2023-02-19T12:01:46.138Z,96.60
2023-02-19T12:04:43.337Z,96.60
2023-02-19T12:07:42.067Z,96.60
2023-02-19T12:10:24.209Z,96.60
2023-02-19T12:13:15.977Z,96.60
2023-02-19T12:16:05.606Z,96.60
2023-02-19T12:18:53.676Z,96.60
2023-02-19T12:21:35.530Z,96.60
2023-02-19T12:24:23.425Z,96.60
2023-02-19T12:26:59.346Z,96.60
2023-02-19T12:29:38.012Z,96.60
2023-02-19T12:32:28.854Z,96.60
2023-02-19T12:35:33.489Z,96.60
2023-02-19T12:38:25.893Z,96.60
2023-02-19T12:41:10.453Z,96.60
2023-02-19T12:43:40.451Z,96.60
2023-02-19T12:46:21.450Z,96.60
2023-02-19T12:49:23.666Z,96.60
2023-02-19T12:51:57.427Z,96.60
2023-02-19T12:54:34.765Z,96.60
2023-02-19T12:57:22.832Z,96.60
2023-02-19T13:00:39.438Z,96.60
2023-02-19T13:03:13.283Z,96.60
2023-02-19T13:05:52.329Z,96.10
2023-02-19T13:08:48.766Z,96.40
2023-02-19T13:11:38.493Z,96.60
2023-02-19T13:14:19.406Z,96.30
2023-02-19T13:16:51.257Z,96.30
2023-02-19T13:19:18.087Z,96.60
2023-02-19T13:22:10.022Z,95.00
2023-02-19T13:24:40.728Z,96.30
2023-02-19T13:27:41.687Z,96.60
2023-02-19T13:30:32.570Z,96.60
2023-02-19T13:33:30.137Z,95.70
2023-02-19T13:36:13.353Z,95.60
2023-02-19T13:38:46.028Z,96.20
2023-02-19T13:41:27.964Z,95.40
2023-02-19T13:43:58.267Z,94.90
2023-02-19T13:46:25.745Z,94.90
2023-02-19T13:49:27.482Z,94.90
2023-02-19T13:51:57.428Z,94.80
2023-02-19T13:54:33.630Z,95.00
2023-02-19T13:57:26.182Z,94.70
2023-02-19T13:59:55.134Z,94.50
2023-02-19T14:02:21.904Z,95.30
2023-02-19T14:04:52.515Z,95.10
2023-02-19T14:07:20.959Z,95.10
2023-02-19T14:09:48.538Z,95.30
2023-02-19T14:12:16.251Z,96.60
2023-02-19T14:14:50.505Z,96.60
2023-02-19T14:17:37.882Z,96.60
2023-02-19T14:20:16.716Z,96.60
2023-02-19T14:22:46.639Z,96.60
2023-02-19T14:25:22.264Z,96.60
2023-02-19T14:27:50.383Z,96.60
2023-02-19T14:30:17.671Z,96.60
2023-02-19T14:32:47.420Z,96.60
2023-02-19T14:35:22.587Z,96.60
2023-02-19T14:37:51.665Z,96.60
2023-02-19T14:40:23.738Z,96.60
2023-02-19T14:42:53.328Z,96.60
2023-02-19T14:45:21.066Z,96.60
2023-02-19T14:47:49.445Z,96.60
2023-02-19T14:50:27.141Z,96.60
2023-02-19T14:53:17.140Z,96.60
2023-02-19T14:55:56.205Z,96.60
2023-02-19T14:58:28.830Z,96.60
2023-02-19T15:00:55.703Z,96.60
2023-02-19T15:03:35.642Z,96.60
2023-02-19T15:06:06.782Z,96.60
2023-02-19T15:08:39.824Z,96.60
2023-02-19T15:11:12.723Z,96.60
2023-02-19T15:13:45.528Z,96.60
2023-02-19T15:16:21.249Z,96.60
2023-02-19T15:18:50.008Z,96.60
2023-02-19T15:21:32.207Z,96.60
2023-02-19T15:24:06.646Z,96.60
2023-02-19T15:26:43.214Z,96.60
2023-02-19T15:29:13.334Z,96.60
2023-02-19T15:31:53.303Z,96.60
2023-02-19T15:34:23.300Z,96.60
2023-02-19T15:36:53.207Z,96.60
2023-02-19T15:39:25.373Z,96.60
2023-02-19T15:42:00.122Z,96.60
2023-02-19T15:44:39.021Z,96.60
2023-02-19T15:47:15.613Z,96.60
2023-02-19T15:49:55.252Z,96.60
2023-02-19T15:52:35.245Z,96.60
2023-02-19T15:55:22.626Z,96.60
2023-02-19T15:58:13.605Z,96.60
2023-02-19T16:00:48.554Z,96.60
2023-02-19T16:03:24.059Z,96.60
2023-02-19T16:06:04.144Z,96.60
2023-02-19T16:08:36.474Z,96.60
2023-02-19T16:11:06.573Z,96.60
2023-02-19T16:13:34.972Z,96.60
2023-02-19T16:16:20.004Z,96.60
2023-02-19T16:18:49.035Z,96.60
2023-02-19T16:21:20.092Z,96.60
2023-02-19T16:23:49.570Z,96.60
2023-02-19T16:26:17.455Z,96.60
2023-02-19T16:28:44.545Z,96.60
2023-02-19T16:31:13.779Z,96.60
2023-02-19T16:33:48.661Z,96.60
2023-02-19T16:36:35.881Z,96.60
2023-02-19T16:39:08.545Z,96.60
2023-02-19T16:41:47.617Z,96.60
2023-02-19T16:44:46.983Z,96.60
2023-02-19T16:47:35.177Z,96.60
2023-02-19T16:50:07.244Z,96.60
2023-02-19T16:52:34.014Z,96.60
2023-02-19T16:55:01.709Z,96.60
2023-02-19T16:57:29.367Z,96.60
2023-02-19T16:59:56.144Z,96.60
2023-02-19T17:02:24.279Z,96.60
2023-02-19T17:04:51.894Z,96.60
2023-02-19T17:07:18.850Z,96.60
2023-02-19T17:09:45.733Z,96.60
2023-02-19T17:12:14.609Z,96.60
2023-02-19T17:14:41.945Z,96.60
2023-02-19T17:17:09.165Z,96.60
2023-02-19T17:19:36.103Z,96.60
2023-02-19T17:22:03.746Z,96.60
2023-02-19T17:24:30.705Z,96.60
2023-02-19T17:26:57.666Z,96.60
2023-02-19T17:29:24.872Z,96.60
2023-02-19T17:31:51.965Z,96.60
2023-02-19T17:34:18.875Z,96.60
2023-02-19T17:36:48.431Z,96.60
2023-02-19T17:39:16.106Z,96.60
2023-02-19T17:41:43.312Z,96.60
2023-02-19T17:44:10.423Z,96.60
2023-02-19T17:46:38.301Z,96.60
2023-02-19T17:49:05.254Z,96.60
2023-02-19T17:51:32.070Z,96.60
2023-02-19T17:53:59.030Z,96.60
2023-02-19T17:56:27.620Z,96.60
2023-02-19T17:58:56.062Z,96.60
2023-02-19T18:01:23.005Z,96.60
2023-02-19T18:03:50.308Z,96.60
2023-02-19T18:06:17.133Z,96.60
2023-02-19T18:08:51.480Z,96.60
2023-02-19T18:11:22.204Z,96.60
2023-02-19T18:13:50.862Z,96.60
2023-02-19T18:16:18.757Z,96.60
2023-02-19T18:18:45.765Z,96.60
2023-02-19T18:21:13.558Z,96.60
2023-02-19T18:23:40.790Z,96.60
2023-02-19T18:26:10.380Z,96.60
2023-02-19T18:28:37.877Z,96.60
2023-02-19T18:31:04.929Z,96.60
2023-02-19T18:33:32.672Z,96.60
2023-02-19T18:35:59.444Z,96.60
2023-02-19T18:38:26.566Z,96.60
2023-02-19T18:40:53.653Z,96.60
2023-02-19T18:43:20.446Z,96.60
2023-02-19T18:45:47.254Z,96.60
2023-02-19T18:48:14.320Z,96.60
2023-02-19T18:50:41.246Z,96.60
2023-02-19T18:53:08.008Z,96.60
2023-02-19T18:55:34.731Z,96.60
2023-02-19T18:58:01.506Z,96.60
2023-02-19T19:00:28.404Z,96.60
2023-02-19T19:02:59.505Z,96.60
2023-02-19T19:05:26.787Z,96.60
2023-02-19T19:07:55.720Z,96.60
2023-02-19T19:10:23.431Z,96.60
2023-02-19T19:12:50.458Z,96.60
2023-02-19T19:15:18.569Z,96.60
2023-02-19T19:17:46.409Z,96.60
2023-02-19T19:20:14.934Z,96.60
2023-02-19T19:22:41.753Z,96.60
2023-02-19T19:25:08.896Z,96.60
2023-02-19T19:27:35.862Z,96.60
2023-02-19T19:30:04.298Z,96.60
2023-02-19T19:32:31.229Z,96.60
2023-02-19T19:34:58.132Z,96.60
2023-02-19T19:37:27.469Z,96.60
2023-02-19T19:39:56.317Z,96.60
2023-02-19T19:42:23.450Z,96.60
2023-02-19T19:44:50.359Z,96.60
2023-02-19T19:47:17.471Z,96.60
2023-02-19T19:49:47.025Z,96.60
2023-02-19T19:52:13.932Z,96.60
2023-02-19T19:54:44.360Z,96.60
2023-02-19T19:57:11.367Z,96.60
2023-02-19T19:59:39.292Z,96.60
2023-02-19T20:02:07.643Z,96.60
2023-02-19T20:04:34.437Z,96.60
2023-02-19T20:07:01.724Z,96.60
2023-02-19T20:09:29.086Z,96.60
2023-02-19T20:11:56.253Z,96.60
2023-02-19T20:14:32.443Z,96.60
2023-02-19T20:16:59.446Z,96.60
2023-02-19T20:19:27.025Z,96.60
2023-02-19T20:21:54.373Z,96.60
2023-02-19T20:24:24.388Z,96.60
2023-02-19T20:27:02.151Z,96.60
2023-02-19T20:29:31.381Z,96.60
2023-02-19T20:32:00.057Z,96.60
2023-02-19T20:34:27.619Z,96.60
2023-02-19T20:36:54.950Z,96.60
2023-02-19T20:39:22.808Z,96.60
2023-02-19T20:41:51.267Z,96.60
2023-02-19T20:44:19.211Z,96.60
2023-02-19T20:46:48.618Z,96.60
2023-02-19T20:49:17.106Z,96.60
2023-02-19T20:51:51.870Z,96.60
2023-02-19T20:54:20.164Z,96.60
2023-02-19T20:56:48.996Z,96.60
2023-02-19T20:59:17.158Z,96.60
2023-02-19T21:01:44.613Z,96.60
2023-02-19T21:04:12.920Z,96.60
2023-02-19T21:06:39.765Z,96.60
2023-02-19T21:09:06.612Z,96.60
2023-02-19T21:11:33.958Z,96.60
2023-02-19T21:14:00.844Z,96.60
2023-02-19T21:16:31.984Z,96.60
2023-02-19T21:18:59.568Z,96.60
2023-02-19T21:21:26.693Z,96.60
2023-02-19T21:23:54.683Z,96.60
2023-02-19T21:26:22.423Z,96.60
2023-02-19T21:28:53.114Z,96.60
2023-02-19T21:31:21.057Z,96.60
2023-02-19T21:33:48.810Z,96.60
2023-02-19T21:36:18.557Z,96.60
2023-02-19T21:38:45.399Z,96.60
2023-02-19T21:41:12.126Z,96.60
2023-02-19T21:43:38.846Z,96.60
2023-02-19T21:46:06.595Z,96.60
2023-02-19T21:48:33.427Z,96.60
2023-02-19T21:51:00.221Z,96.60
2023-02-19T21:53:26.954Z,96.60
2023-02-19T21:55:58.717Z,96.60
2023-02-19T21:58:29.186Z,96.60
2023-02-19T22:00:57.923Z,96.60
2023-02-19T22:03:26.557Z,96.60
2023-02-19T22:05:54.554Z,96.60
2023-02-19T22:08:21.417Z,96.60
2023-02-19T22:10:49.216Z,96.60
2023-02-19T22:13:15.941Z,96.60
2023-02-19T22:15:42.749Z,96.60
2023-02-19T22:18:09.575Z,96.60
2023-02-19T22:20:38.404Z,96.60
2023-02-19T22:23:06.683Z,96.60
2023-02-19T22:25:33.542Z,96.60
2023-02-19T22:28:00.345Z,96.60
2023-02-19T22:30:27.214Z,96.60
2023-02-19T22:32:54.080Z,96.60
2023-02-19T22:35:21.053Z,96.60
2023-02-19T22:37:47.824Z,96.60
2023-02-19T22:40:14.693Z,96.60
2023-02-19T22:42:41.474Z,96.60
2023-02-19T22:45:10.633Z,96.60
2023-02-19T22:47:37.427Z,96.60
2023-02-19T22:50:04.321Z,96.60
2023-02-19T22:52:31.036Z,96.60
2023-02-19T22:54:57.985Z,96.60
2023-02-19T22:57:24.719Z,96.60
2023-02-19T22:59:51.476Z,96.60
2023-02-19T23:02:18.307Z,96.60
2023-02-19T23:04:45.102Z,96.60
2023-02-19T23:07:11.884Z,96.60
2023-02-19T23:09:38.744Z,96.60
2023-02-19T23:12:08.992Z,96.60
2023-02-19T23:14:35.873Z,96.60
2023-02-19T23:17:02.741Z,96.60
2023-02-19T23:19:30.066Z,96.60
2023-02-19T23:21:56.994Z,96.60
2023-02-19T23:24:23.732Z,96.60
2023-02-19T23:26:52.082Z,96.60
2023-02-19T23:29:22.786Z,96.60
2023-02-19T23:31:50.849Z,96.60
2023-02-19T23:34:18.417Z,96.60
2023-02-19T23:36:48.594Z,96.60
2023-02-19T23:39:17.930Z,96.60
2023-02-19T23:42:02.688Z,96.60
2023-02-19T23:44:29.419Z,96.60
2023-02-19T23:46:56.262Z,96.60
2023-02-19T23:49:23.536Z,96.60
2023-02-19T23:51:50.288Z,96.60
2023-02-19T23:54:17.186Z,96.60
2023-02-19T23:56:43.990Z,96.60
2023-02-19T23:59:10.982Z,96.60
